WetterOnline ( http://www.wetteronline.de )

Wetter aktuell Döttesfeld

Aktuelles Wetter: Bad Marienberg (555m)

6-stündlich | Neueste Meldungen
Ortszeit Temperatur Wetter
So, 22.07. 8:00 15.6° C fast wolkenlos
So, 22.07. 2:00 17.3° C bewölkt
Sa, 21.07. 20:00 20.7° C bedeckt
Sa, 21.07. 14:00 20.4° C bewölkt
Sa, 21.07. 8:00 14.6° C Regen
Sa, 21.07. 2:00 17.3° C bedeckt
Fr, 20.07. 20:00 24.9° C bedeckt
Fr, 20.07. 14:00 25.3° C wolkig
Ortszeit Temperatur Wetter
So, 22.07. 12:30 21.6° C leicht bewölkt
So, 22.07. 12:20 21.6° C leicht bewölkt
So, 22.07. 12:10 21.3° C wolkig
So, 22.07. 12:00 21.2° C leicht bewölkt
So, 22.07. 11:50 21.2° C leicht bewölkt
So, 22.07. 11:40 21.7° C fast wolkenlos
So, 22.07. 11:30 21.2° C fast wolkenlos
So, 22.07. 11:00 19.7° C leicht bewölkt
So, 22.07. 10:30 19.9° C wolkenlos
So, 22.07. 10:00 18.6° C wolkig
So, 22.07. 9:30 18.1° C bedeckt
Ortszeit Relative Feuchte Sichtweite
So, 22.07. 8:00 91% 3.8 km
So, 22.07. 2:00 83% 9 km
Sa, 21.07. 20:00 60% 22 km
Sa, 21.07. 14:00 80% 16 km
Sa, 21.07. 8:00 94% 2.3 km
Sa, 21.07. 2:00 72% 17 km
Fr, 20.07. 20:00 33% 35 km
Fr, 20.07. 14:00 30% 40 km
Ortszeit Relative Feuchte Sichtweite
So, 22.07. 12:30 62% 16 km
So, 22.07. 12:20 62% -
So, 22.07. 12:10 61% -
So, 22.07. 12:00 60% 12 km
So, 22.07. 11:50 60% -
So, 22.07. 11:40 59% -
So, 22.07. 11:30 61% 14 km
So, 22.07. 11:00 64% 12 km
So, 22.07. 10:30 66% 10 km
So, 22.07. 10:00 73% 7 km
So, 22.07. 9:30 76% 5.0 km
Ortszeit Niederschlagsmenge Niederschlagsart
So, 22.07. 8:00 0.1 l/m2 in 12 Std. -
So, 22.07. 2:00 0.1 l/m2 in 6 Std. Regen
Sa, 21.07. 20:00 4 l/m2 in 12 Std. Regen
Sa, 21.07. 14:00 4 l/m2 in 6 Std. Regen
Sa, 21.07. 8:00 8 l/m2 in 12 Std. Regenschauer
Sa, 21.07. 2:00 0.1 l/m2 in 6 Std. Regen
Fr, 20.07. 20:00 0.1 l/m2 in 12 Std. Regen
Fr, 20.07. 14:00 0.0 l/m2 in 6 Std. -
Ortszeit Niederschlagsmenge Niederschlagsart
So, 22.07. 12:30 0.0 l/m2 in 1 Std. -
So, 22.07. 12:20 keine Meldung -
So, 22.07. 12:10 keine Meldung -
So, 22.07. 12:00 0.0 l/m2 in 1 Std. -
So, 22.07. 11:50 keine Meldung -
So, 22.07. 11:40 keine Meldung -
So, 22.07. 11:30 0.0 l/m2 in 1 Std. -
So, 22.07. 11:00 0.0 l/m2 in 1 Std. -
So, 22.07. 10:30 0.0 l/m2 in 1 Std. -
So, 22.07. 10:00 0.0 l/m2 in 1 Std. -
So, 22.07. 9:30 0.0 l/m2 in 1 Std. -
Ortszeit Stärke Spitze Richtung
km/h Bft. km/h Grad Sektor
So, 22.07. 8:00 13 3 20 340° N
So, 22.07. 2:00 7 2 14 310° NW
Sa, 21.07. 20:00 6 1 22 160° S
Sa, 21.07. 14:00 11 2 18 170° S
Sa, 21.07. 8:00 7 2 39 230° SW
Sa, 21.07. 2:00 13 3 24 10° N
Fr, 20.07. 20:00 4 1 25 170° S
Fr, 20.07. 14:00 7 2 22 280° W
Ortszeit Stärke Spitze Richtung
km/h Bft. km/h Grad Sektor
So, 22.07. 12:30 13 3 22 270° W
So, 22.07. 12:20 13 3 - 270° W
So, 22.07. 12:10 9 2 - 310° NW
So, 22.07. 12:00 9 2 19 350° N
So, 22.07. 11:50 9 2 - 350° N
So, 22.07. 11:40 9 2 - 330° NW
So, 22.07. 11:30 9 2 19 320° NW
So, 22.07. 11:00 9 2 20 340° N
So, 22.07. 10:30 9 2 19 330° NW
So, 22.07. 10:00 11 2 19 340° N
So, 22.07. 9:30 11 2 18 320° NW
Ortszeit Untergrenze Bedeckung Gattung
total tief tief mittel hoch
So, 22.07. 8:00 1440 m 1/8 1/8 - - -
So, 22.07. 2:00 2100 m 8/8 5/8 - - -
Sa, 21.07. 20:00 6300 m 8/8 8/8 - - -
Sa, 21.07. 14:00 330 m 7/8 7/8 - - -
Sa, 21.07. 8:00 2100 m 8/8 8/8 - - -
Sa, 21.07. 2:00 1410 m 8/8 8/8 - - -
Fr, 20.07. 20:00 2400 m 8/8 8/8 - - -
Fr, 20.07. 14:00 2100 m 6/8 6/8 - - -
Ortszeit Bedeckungsgrad in Achtel und Wolkenuntergrenze
So, 22.07. 12:30 3(870m)
So, 22.07. 12:20 3(870m)
So, 22.07. 12:10 6(870m)
So, 22.07. 12:00 3(870m) 4(6600m)
So, 22.07. 11:50 3(870m) 4(6600m)
So, 22.07. 11:40 1(870m) 1(6600m)
So, 22.07. 11:30 1(1500m) 2(6600m)
So, 22.07. 11:00 3(1800m)
So, 22.07. 10:30 keine Wolken
So, 22.07. 10:00 4(1800m) 6(3300m)
So, 22.07. 9:30 8(3300m)
Ortszeit Luftdruck NN (hPa) Tendenz (hPa in 3 Std.)
So, 22.07. 8:00 1014 + 0,7
So, 22.07. 2:00 1013 + 0,2
Sa, 21.07. 20:00 1011 0,0
Sa, 21.07. 14:00 1011 + 1,0
Sa, 21.07. 8:00 1012 + 1,2
Sa, 21.07. 2:00 1011 - 0,6
Fr, 20.07. 20:00 1010 - 0,9
Fr, 20.07. 14:00 1012 - 0,8
Ortszeit Luftdruck NN (hPa) Tendenz (hPa in 3 Std.)
So, 22.07. 12:30 1014 + 0,3
So, 22.07. 12:20 1014 keine Meldung
So, 22.07. 12:10 1014 keine Meldung
So, 22.07. 12:00 1014 + 0,5
So, 22.07. 11:50 1014 keine Meldung
So, 22.07. 11:40 1014 keine Meldung
So, 22.07. 11:30 1014 + 0,5
So, 22.07. 11:00 1014 + 0,7
So, 22.07. 10:30 1014 + 0,7
So, 22.07. 10:00 1014 + 1,0
So, 22.07. 9:30 1014 + 1,1
Ortszeit Schneehöhe (cm)
So, 22.07. 8:00 -
So, 22.07. 2:00 -
Sa, 21.07. 20:00 -
Sa, 21.07. 14:00 -
Sa, 21.07. 8:00 -
Sa, 21.07. 2:00 -
Fr, 20.07. 20:00 -
Fr, 20.07. 14:00 -
Ortszeit Schneehöhe (cm)
So, 22.07. 12:30 -
So, 22.07. 12:20 -
So, 22.07. 12:10 -
So, 22.07. 12:00 -
So, 22.07. 11:50 -
So, 22.07. 11:40 -
So, 22.07. 11:30 -
So, 22.07. 11:00 -
So, 22.07. 10:30 -
So, 22.07. 10:00 -
So, 22.07. 9:30 -
Link zu dieser Seite / Seite empfehlen

Das Wetter in ...